createdAt,value
2018-06-22T00:00:07.702Z,12.90
2018-06-22T00:02:36.707Z,12.90
2018-06-22T00:05:09.918Z,12.90
2018-06-22T00:07:38.832Z,12.80
2018-06-22T00:10:12.047Z,12.80
2018-06-22T00:12:41.293Z,12.70
2018-06-22T00:15:14.170Z,12.70
2018-06-22T00:17:43.621Z,12.70
2018-06-22T00:20:20.173Z,12.70
2018-06-22T00:22:49.182Z,12.70
2018-06-22T00:25:18.968Z,12.70
2018-06-22T00:32:53.129Z,12.60
2018-06-22T00:35:22.817Z,12.60
2018-06-22T00:37:51.940Z,12.60
2018-06-22T00:40:27.792Z,12.60
2018-06-22T00:42:56.891Z,12.50
2018-06-22T00:45:26.518Z,12.60
2018-06-22T00:47:55.239Z,12.60
2018-06-22T00:50:31.361Z,12.50
2018-06-22T00:53:00.119Z,12.50
2018-06-22T00:55:30.329Z,12.50
2018-06-22T00:57:59.778Z,12.50
2018-06-22T01:00:36.158Z,12.50
2018-06-22T01:03:05.071Z,12.60
2018-06-22T01:05:34.708Z,12.60
2018-06-22T01:08:03.703Z,12.60
2018-06-22T01:10:36.427Z,12.60
2018-06-22T01:13:05.665Z,12.50
2018-06-22T01:15:38.617Z,12.50
2018-06-22T01:18:07.570Z,12.40
2018-06-22T01:20:41.057Z,12.40
2018-06-22T01:23:09.994Z,12.40
2018-06-22T01:25:43.289Z,12.40
2018-06-22T01:28:12.445Z,12.40
2018-06-22T01:30:48.662Z,12.40
2018-06-22T01:33:17.420Z,12.40
2018-06-22T01:35:47.701Z,12.40
2018-06-22T01:38:16.421Z,12.40
2018-06-22T01:40:52.408Z,12.40
2018-06-22T01:43:21.464Z,12.40
2018-06-22T01:45:51.221Z,12.40
2018-06-22T01:48:19.968Z,12.40
2018-06-22T01:50:57.051Z,12.40
2018-06-22T01:53:25.749Z,12.40
2018-06-22T01:55:55.441Z,12.40
2018-06-22T01:58:24.733Z,12.50
2018-06-22T02:00:57.717Z,12.40
2018-06-22T02:03:26.473Z,12.40
2018-06-22T02:06:02.955Z,12.40
2018-06-22T02:08:31.632Z,12.40
2018-06-22T02:11:02.285Z,12.40
2018-06-22T02:13:32.221Z,12.40
2018-06-22T02:16:04.761Z,12.50
2018-06-22T02:18:33.622Z,12.50
2018-06-22T02:21:09.958Z,12.50
2018-06-22T02:23:38.945Z,12.50
2018-06-22T02:26:09.293Z,12.40
2018-06-22T02:28:38.653Z,12.40
2018-06-22T02:31:14.909Z,12.40
2018-06-22T02:33:43.715Z,12.40
2018-06-22T02:36:13.730Z,12.30
2018-06-22T02:38:42.498Z,12.20
2018-06-22T02:41:15.175Z,12.20
2018-06-22T02:43:44.409Z,12.20
2018-06-22T02:46:20.936Z,12.20
2018-06-22T02:48:49.841Z,12.30
2018-06-22T02:51:19.261Z,12.30
2018-06-22T02:53:47.952Z,12.20
2018-06-22T02:56:22.449Z,12.00
2018-06-22T02:58:51.130Z,12.00
2018-06-22T03:01:23.114Z,12.00
2018-06-22T03:03:52.192Z,12.00
2018-06-22T03:06:25.199Z,12.00
2018-06-22T03:08:54.009Z,12.00
2018-06-22T03:11:26.144Z,12.00
2018-06-22T03:13:54.882Z,12.00
2018-06-22T03:16:31.045Z,11.90
2018-06-22T03:19:00.050Z,11.90
2018-06-22T03:21:30.216Z,11.90
2018-06-22T03:23:58.905Z,11.90
2018-06-22T03:26:35.709Z,11.80
2018-06-22T03:29:04.576Z,11.90
2018-06-22T03:31:33.295Z,11.80
2018-06-22T03:34:02.417Z,11.70
2018-06-22T03:36:38.423Z,11.60
2018-06-22T03:39:08.761Z,11.60
2018-06-22T03:41:37.780Z,11.70
2018-06-22T03:44:06.543Z,11.70
2018-06-22T03:46:43.408Z,11.70
2018-06-22T03:49:12.313Z,11.70
2018-06-22T03:51:42.065Z,11.80
2018-06-22T03:54:10.781Z,11.90
2018-06-22T03:56:46.665Z,11.80
2018-06-22T03:59:15.773Z,11.80
2018-06-22T04:01:45.985Z,11.80
2018-06-22T04:04:14.719Z,11.80
2018-06-22T04:06:48.388Z,11.80
2018-06-22T04:09:17.375Z,11.80
2018-06-22T04:11:53.888Z,11.80
2018-06-22T04:14:22.598Z,11.80
2018-06-22T04:16:53.254Z,11.80
2018-06-22T04:19:21.988Z,11.80
2018-06-22T04:21:58.835Z,11.80
2018-06-22T04:24:29.011Z,11.70
2018-06-22T04:26:57.749Z,11.80
2018-06-22T04:29:27.315Z,11.80
2018-06-22T04:32:04.001Z,11.90
2018-06-22T04:34:33.735Z,11.90
2018-06-22T04:37:02.479Z,11.90
2018-06-22T04:39:31.165Z,11.90
2018-06-22T04:42:04.324Z,11.80
2018-06-22T04:44:33.033Z,12.00
2018-06-22T04:47:08.886Z,12.00
2018-06-22T04:49:37.860Z,12.00
2018-06-22T04:52:10.106Z,12.00
2018-06-22T04:54:39.096Z,12.10
2018-06-22T04:57:12.200Z,12.10
2018-06-22T04:59:40.939Z,12.10
2018-06-22T05:02:17.097Z,12.10
2018-06-22T05:04:47.272Z,12.20
2018-06-22T05:07:21.048Z,12.20
2018-06-22T05:09:50.085Z,12.30
2018-06-22T05:12:19.674Z,12.30
2018-06-22T05:14:48.461Z,12.40
2018-06-22T05:17:25.068Z,12.40
2018-06-22T05:19:53.857Z,12.40
2018-06-22T05:22:23.129Z,12.30
2018-06-22T05:24:53.069Z,12.30
2018-06-22T05:27:25.690Z,12.30
2018-06-22T05:29:54.741Z,12.40
2018-06-22T05:32:31.414Z,12.50
2018-06-22T05:35:00.569Z,12.50
2018-06-22T05:37:29.436Z,12.50
2018-06-22T05:39:58.192Z,12.50
2018-06-22T05:42:30.741Z,12.40
2018-06-22T05:44:59.799Z,12.40
2018-06-22T05:47:36.214Z,12.50
2018-06-22T05:50:05.179Z,12.50
2018-06-22T05:52:34.045Z,12.60
2018-06-22T05:55:02.834Z,12.60
2018-06-22T05:57:37.065Z,12.60
2018-06-22T06:00:06.106Z,12.70
2018-06-22T06:02:39.101Z,12.90
2018-06-22T06:05:08.236Z,13.00
2018-06-22T06:07:40.999Z,13.10
2018-06-22T06:10:09.769Z,13.20
2018-06-22T06:12:42.709Z,13.20
2018-06-22T06:15:11.433Z,13.20
2018-06-22T06:17:47.723Z,13.20
2018-06-22T06:20:16.980Z,13.20
2018-06-22T06:22:46.930Z,13.20
2018-06-22T06:25:15.872Z,13.20
2018-06-22T06:27:49.851Z,13.30
2018-06-22T06:30:19.010Z,13.40
2018-06-22T06:32:51.730Z,13.50
2018-06-22T06:35:21.225Z,13.60
2018-06-22T06:37:53.989Z,13.70
2018-06-22T06:40:23.020Z,13.80
2018-06-22T06:42:55.805Z,13.80
2018-06-22T06:45:24.752Z,13.90
2018-06-22T06:48:00.628Z,13.90
2018-06-22T06:50:31.557Z,13.90
2018-06-22T06:53:00.430Z,13.90
2018-06-22T06:55:29.561Z,13.90
2018-06-22T06:58:02.034Z,13.90
2018-06-22T07:00:30.903Z,13.90
2018-06-22T07:03:07.747Z,14.00
2018-06-22T07:05:36.525Z,14.00
2018-06-22T07:08:06.717Z,14.10
2018-06-22T07:10:35.502Z,14.10
2018-06-22T07:13:12.234Z,14.10
2018-06-22T07:15:41.810Z,14.20
2018-06-22T07:18:17.569Z,14.20
2018-06-22T07:20:48.434Z,14.20
2018-06-22T07:23:18.220Z,14.20
2018-06-22T07:25:55.233Z,14.20
2018-06-22T07:28:25.625Z,14.30
2018-06-22T07:30:56.174Z,14.40
2018-06-22T07:33:25.085Z,14.50
2018-06-22T07:35:55.600Z,14.60
2018-06-22T07:38:24.602Z,14.60
2018-06-22T07:40:53.761Z,14.60
2018-06-22T07:43:23.399Z,14.70
2018-06-22T07:45:52.636Z,14.80
2018-06-22T07:48:22.701Z,14.90
2018-06-22T07:50:52.062Z,14.80
2018-06-22T07:53:28.767Z,15.00
2018-06-22T07:55:58.352Z,15.10
2018-06-22T07:58:27.548Z,15.20
2018-06-22T08:00:57.142Z,15.30
2018-06-22T08:03:28.766Z,15.40
2018-06-22T08:05:58.257Z,15.50
2018-06-22T08:08:29.349Z,15.50
2018-06-22T08:10:58.611Z,15.60
2018-06-22T08:13:35.307Z,15.60
2018-06-22T08:16:04.353Z,15.50
2018-06-22T08:18:33.272Z,15.60
2018-06-22T08:21:02.125Z,15.60
2018-06-22T08:23:40.897Z,15.60
2018-06-22T08:26:16.091Z,15.50
2018-06-22T08:28:45.166Z,15.60
2018-06-22T08:31:14.165Z,15.70
2018-06-22T08:33:43.528Z,15.70
2018-06-22T08:36:12.709Z,15.70
2018-06-22T08:38:41.536Z,15.70
2018-06-22T08:41:10.607Z,15.70
2018-06-22T08:43:47.743Z,15.70
2018-06-22T08:46:17.127Z,15.60
2018-06-22T08:48:46.345Z,15.50
2018-06-22T08:51:17.006Z,15.50
2018-06-22T08:53:49.281Z,15.50
2018-06-22T08:56:19.782Z,15.50
2018-06-22T08:58:50.125Z,15.40
2018-06-22T09:01:19.433Z,15.40
2018-06-22T09:03:53.125Z,15.40
2018-06-22T09:06:22.989Z,15.40
2018-06-22T09:08:56.220Z,15.40
2018-06-22T09:11:25.208Z,15.40
2018-06-22T09:13:57.631Z,15.50
2018-06-22T09:16:28.025Z,15.60
2018-06-22T09:18:59.168Z,15.60
2018-06-22T09:21:28.301Z,15.60
2018-06-22T09:24:01.161Z,15.60
2018-06-22T09:26:30.441Z,15.70
2018-06-22T09:29:06.669Z,15.70
2018-06-22T09:31:35.832Z,15.70
2018-06-22T09:34:05.894Z,15.80
2018-06-22T09:43:24.132Z,15.80
2018-06-22T09:45:53.551Z,15.70
2018-06-22T09:48:23.304Z,15.60
2018-06-22T09:50:53.324Z,15.60
2018-06-22T09:53:23.408Z,15.60
2018-06-22T09:55:53.089Z,15.60
2018-06-22T09:58:22.841Z,15.60
2018-06-22T10:00:53.278Z,15.80
2018-06-22T10:03:24.278Z,16.00
2018-06-22T10:05:53.293Z,16.20
2018-06-22T10:08:22.749Z,16.40
2018-06-22T10:10:53.068Z,16.50
2018-06-22T10:13:23.823Z,16.70
2018-06-22T10:15:54.387Z,16.90
2018-06-22T10:18:24.806Z,17.00
2018-06-22T10:20:54.165Z,17.00
2018-06-22T10:23:25.017Z,17.00
2018-06-22T10:25:54.257Z,17.00
2018-06-22T10:28:30.798Z,17.00
2018-06-22T10:31:01.501Z,16.90
2018-06-22T10:33:31.618Z,17.00
2018-06-22T10:36:03.710Z,16.90
2018-06-22T10:38:34.304Z,16.90
2018-06-22T10:41:03.419Z,16.70
2018-06-22T10:43:34.183Z,16.80
2018-06-22T10:46:04.319Z,17.00
2018-06-22T10:48:36.200Z,17.50
2018-06-22T10:51:10.212Z,18.10
2018-06-22T10:53:39.108Z,18.40
2018-06-22T10:56:08.156Z,18.70
2018-06-22T10:58:38.763Z,18.70
2018-06-22T11:01:07.782Z,18.80
2018-06-22T11:03:45.565Z,18.80
2018-06-22T11:06:14.445Z,18.70
2018-06-22T11:08:43.296Z,18.60
2018-06-22T11:11:13.575Z,18.50
2018-06-22T11:13:49.088Z,18.60
2018-06-22T11:16:20.460Z,18.60
2018-06-22T11:18:50.787Z,18.50
2018-06-22T11:21:24.217Z,18.50
2018-06-22T11:23:55.226Z,18.30
2018-06-22T11:26:25.087Z,18.30
2018-06-22T11:28:55.208Z,18.10
2018-06-22T11:31:24.812Z,18.00
2018-06-22T11:33:56.031Z,18.00
2018-06-22T11:36:26.298Z,17.80
2018-06-22T11:38:57.543Z,17.80
2018-06-22T11:41:27.182Z,17.80
2018-06-22T11:44:04.591Z,17.70
2018-06-22T11:46:36.350Z,17.70
2018-06-22T11:49:08.181Z,17.60
2018-06-22T11:51:39.507Z,17.60
2018-06-22T11:54:10.338Z,17.60
2018-06-22T11:56:40.626Z,17.40
2018-06-22T12:01:41.741Z,17.40
2018-06-22T12:04:11.906Z,17.50
2018-06-22T12:06:41.634Z,17.40
2018-06-22T12:09:13.175Z,17.30
2018-06-22T12:11:42.563Z,17.30
2018-06-22T12:14:12.432Z,17.10
2018-06-22T12:16:42.687Z,17.00
2018-06-22T12:19:16.333Z,16.90
2018-06-22T12:21:48.251Z,16.80
2018-06-22T12:24:19.318Z,16.80
2018-06-22T12:26:48.768Z,17.00
2018-06-22T12:29:22.298Z,17.10
2018-06-22T12:31:51.489Z,17.10
2018-06-22T12:34:21.286Z,17.20
2018-06-22T12:36:51.701Z,17.10
2018-06-22T12:39:24.806Z,17.00
2018-06-22T12:41:54.287Z,17.00
2018-06-22T12:44:24.022Z,16.90
2018-06-22T12:49:22.210Z,16.80
2018-06-22T12:51:52.942Z,16.80
2018-06-22T12:54:33.510Z,17.00
2018-06-22T12:57:03.738Z,17.10
2018-06-22T12:59:33.704Z,17.30
2018-06-22T13:02:02.723Z,17.50
2018-06-22T13:04:31.876Z,17.70
2018-06-22T13:07:00.748Z,17.90
2018-06-22T13:09:38.191Z,17.90
2018-06-22T13:12:07.634Z,17.80
2018-06-22T13:14:36.696Z,17.80
2018-06-22T13:17:05.662Z,17.70
2018-06-22T13:19:36.755Z,17.80
2018-06-22T13:22:06.317Z,17.90
2018-06-22T13:24:39.026Z,18.20
2018-06-22T13:27:08.237Z,18.30
2018-06-22T13:29:45.215Z,18.50
2018-06-22T13:32:14.698Z,18.50
2018-06-22T13:34:44.749Z,18.40
2018-06-22T13:37:13.628Z,18.30
2018-06-22T13:39:48.096Z,18.30
2018-06-22T13:42:17.517Z,18.40
2018-06-22T13:44:48.153Z,18.30
2018-06-22T13:47:17.259Z,18.20
2018-06-22T13:49:53.759Z,18.20
2018-06-22T13:52:22.669Z,18.30
2018-06-22T13:54:52.306Z,18.20
2018-06-22T13:57:22.188Z,18.10
2018-06-22T13:59:54.933Z,18.10
2018-06-22T14:05:02.098Z,18.00
2018-06-22T14:07:32.214Z,17.90
2018-06-22T14:10:06.529Z,17.70
2018-06-22T14:12:35.730Z,17.70
2018-06-22T14:15:05.734Z,17.60
2018-06-22T14:17:34.812Z,17.50
2018-06-22T14:20:05.694Z,17.40
2018-06-22T14:22:34.726Z,17.30
2018-06-22T14:25:07.193Z,17.40
2018-06-22T14:27:36.567Z,17.40
2018-06-22T14:30:07.414Z,17.70
2018-06-22T14:32:36.254Z,18.00
2018-06-22T14:35:13.725Z,18.40
2018-06-22T14:37:42.710Z,18.70
2018-06-22T14:40:15.288Z,18.90
2018-06-22T14:42:44.695Z,19.10
2018-06-22T14:45:16.969Z,19.20
2018-06-22T14:47:47.098Z,19.10
2018-06-22T14:50:19.592Z,19.10
2018-06-22T14:52:49.250Z,18.80
2018-06-22T14:57:29.446Z,18.70
2018-06-22T15:00:03.738Z,18.70
2018-06-22T15:02:45.853Z,18.90
2018-06-22T15:05:21.727Z,19.00
2018-06-22T15:07:52.694Z,19.30
2018-06-22T15:10:30.731Z,19.60
2018-06-22T15:12:59.733Z,19.90
2018-06-22T15:15:28.613Z,20.10
2018-06-22T15:17:57.998Z,19.80
2018-06-22T15:23:05.843Z,19.40
2018-06-22T15:25:34.688Z,19.30
2018-06-22T15:28:04.311Z,19.40
2018-06-22T15:30:34.276Z,19.40
2018-06-22T15:33:04.904Z,19.50
2018-06-22T15:35:41.435Z,19.60
2018-06-22T15:38:16.574Z,19.80
2018-06-22T15:40:52.073Z,19.90
2018-06-22T15:43:26.794Z,19.70
2018-06-22T15:46:01.604Z,19.50
2018-06-22T15:50:39.821Z,19.30
2018-06-22T15:53:15.111Z,19.10
2018-06-22T15:55:46.781Z,18.70
2018-06-22T16:03:19.649Z,18.40
2018-06-22T16:05:49.499Z,18.50
2018-06-22T16:08:18.464Z,18.50
2018-06-22T16:10:51.813Z,18.60
2018-06-22T16:13:22.314Z,18.70
2018-06-22T16:18:33.215Z,18.50
2018-06-22T16:21:07.969Z,18.40
2018-06-22T16:23:42.279Z,18.40
2018-06-22T16:26:18.704Z,18.40
2018-06-22T16:28:47.955Z,18.40
2018-06-22T16:31:17.237Z,18.10
2018-06-22T16:34:01.407Z,18.00
2018-06-22T16:36:31.472Z,17.90
2018-06-22T16:41:33.204Z,17.40
2018-06-22T16:44:05.302Z,17.40
2018-06-22T16:46:34.570Z,17.40
2018-06-22T16:49:08.132Z,17.40
2018-06-22T16:51:38.736Z,17.40
2018-06-22T16:54:12.680Z,17.60
2018-06-22T16:56:43.326Z,17.60
2018-06-22T16:59:12.576Z,17.60
2018-06-22T17:01:41.422Z,17.50
2018-06-22T17:04:16.561Z,17.50
2018-06-22T17:08:54.384Z,17.40
2018-06-22T17:11:28.712Z,17.40
2018-06-22T17:16:08.212Z,17.30
2018-06-22T17:18:42.728Z,17.30
2018-06-22T17:21:23.737Z,17.40
2018-06-22T17:23:55.453Z,17.40
2018-06-22T17:26:30.569Z,17.30
2018-06-22T17:31:07.796Z,17.30
2018-06-22T17:33:45.509Z,17.30
2018-06-22T17:36:15.647Z,17.20
2018-06-22T17:38:46.792Z,17.20
2018-06-22T17:41:16.230Z,17.20
2018-06-22T17:48:48.028Z,17.00
2018-06-22T17:51:17.600Z,16.80
2018-06-22T17:53:49.189Z,16.80
2018-06-22T17:59:05.749Z,16.80
2018-06-22T18:01:42.012Z,16.70
2018-06-22T18:04:17.012Z,16.70
2018-06-22T18:06:51.640Z,16.80
2018-06-22T18:09:27.938Z,16.70
2018-06-22T18:12:04.972Z,16.60
2018-06-22T18:14:39.097Z,16.50
2018-06-22T18:17:08.208Z,16.50
2018-06-22T18:19:42.001Z,16.50
2018-06-22T18:22:11.758Z,16.60
2018-06-22T18:24:44.759Z,16.50
2018-06-22T18:27:16.505Z,16.40
2018-06-22T18:29:48.591Z,16.40
2018-06-22T18:32:18.110Z,16.40
2018-06-22T18:34:48.246Z,16.30
2018-06-22T18:37:18.026Z,16.30
2018-06-22T18:39:51.681Z,16.20
2018-06-22T18:42:21.320Z,16.10
2018-06-22T18:44:53.702Z,16.10
2018-06-22T18:47:23.158Z,16.00
2018-06-22T18:49:56.061Z,15.90
2018-06-22T18:52:30.411Z,15.90
2018-06-22T18:55:05.014Z,15.90
2018-06-22T18:57:40.095Z,15.90
2018-06-22T19:00:15.675Z,15.80
2018-06-22T19:02:49.828Z,15.80
2018-06-22T19:05:19.611Z,15.90
2018-06-22T19:07:48.954Z,15.90
2018-06-22T19:10:18.195Z,15.90
2018-06-22T19:12:48.412Z,15.80
2018-06-22T19:15:17.471Z,15.90
2018-06-22T19:17:46.825Z,15.90
2018-06-22T19:20:16.174Z,15.90
2018-06-22T19:22:49.907Z,15.90
2018-06-22T19:25:19.704Z,15.90
2018-06-22T19:27:50.430Z,15.90
2018-06-22T19:30:21.166Z,15.80
2018-06-22T19:32:53.368Z,15.80
2018-06-22T19:35:24.096Z,15.70
2018-06-22T19:37:53.186Z,15.70
2018-06-22T19:40:23.511Z,15.60
2018-06-22T19:42:53.297Z,15.60
2018-06-22T19:47:34.315Z,15.50
2018-06-22T19:50:09.089Z,15.50
2018-06-22T19:52:43.778Z,15.40
2018-06-22T19:55:12.693Z,15.40
2018-06-22T19:57:42.275Z,15.40
2018-06-22T20:07:01.684Z,15.30
2018-06-22T20:09:33.037Z,15.20
2018-06-22T20:12:02.835Z,15.10
2018-06-22T20:14:32.913Z,15.10
2018-06-22T20:17:02.414Z,15.00
2018-06-22T20:19:34.569Z,14.90
2018-06-22T20:22:06.014Z,14.90
2018-06-22T20:24:43.068Z,14.90
2018-06-22T20:27:12.861Z,14.90
2018-06-22T20:29:44.303Z,14.80
2018-06-22T20:32:17.926Z,14.70
2018-06-22T20:34:53.147Z,14.70
2018-06-22T20:37:27.313Z,14.70
2018-06-22T20:40:01.982Z,14.50
2018-06-22T20:42:39.769Z,14.50
2018-06-22T20:45:14.268Z,14.50
2018-06-22T20:47:49.748Z,14.50
2018-06-22T20:50:24.301Z,14.40
2018-06-22T20:52:54.263Z,14.40
2018-06-22T20:55:24.256Z,14.40
2018-06-22T20:57:53.636Z,14.30
2018-06-22T21:00:24.178Z,14.30
2018-06-22T21:02:53.664Z,14.20
2018-06-22T21:05:24.727Z,14.20
2018-06-22T21:07:54.798Z,14.10
2018-06-22T21:13:02.555Z,14.10
2018-06-22T21:15:33.307Z,14.10
2018-06-22T21:18:02.689Z,14.10
2018-06-22T21:20:32.715Z,14.10
2018-06-22T21:23:02.325Z,14.10
2018-06-22T21:25:31.569Z,14.10
2018-06-22T21:28:07.101Z,14.00
2018-06-22T21:30:43.417Z,14.00
2018-06-22T21:33:19.717Z,13.90
2018-06-22T21:38:36.805Z,13.90
2018-06-22T21:41:09.652Z,13.80
2018-06-22T21:43:38.703Z,13.80
2018-06-22T21:46:14.429Z,13.70
2018-06-22T21:48:44.384Z,13.70
2018-06-22T21:51:17.880Z,13.60
2018-06-22T21:53:51.596Z,13.60
2018-06-22T21:56:22.008Z,13.70
2018-06-22T21:58:55.631Z,13.60
2018-06-22T22:01:26.059Z,13.70
2018-06-22T22:03:58.338Z,13.60
2018-06-22T22:06:27.697Z,13.50
2018-06-22T22:08:56.910Z,13.50
2018-06-22T22:11:33.750Z,13.50
2018-06-22T22:14:04.349Z,13.50
2018-06-22T22:16:37.213Z,13.40
2018-06-22T22:19:06.981Z,13.40
2018-06-22T22:21:36.645Z,13.40
2018-06-22T22:24:06.102Z,13.40
2018-06-22T22:26:36.820Z,13.40
2018-06-22T22:29:07.067Z,13.40
2018-06-22T22:31:36.873Z,13.40
2018-06-22T22:34:06.351Z,13.30
2018-06-22T22:36:36.182Z,13.20
2018-06-22T22:39:08.167Z,13.30
2018-06-22T22:41:37.410Z,13.30
2018-06-22T22:44:06.351Z,13.20
2018-06-22T22:46:35.717Z,13.20
2018-06-22T22:49:05.169Z,13.20
2018-06-22T22:51:34.341Z,13.20
2018-06-22T22:54:03.904Z,13.20
2018-06-22T22:59:05.314Z,13.20
2018-06-22T23:01:43.044Z,13.20
2018-06-22T23:04:12.215Z,13.10
2018-06-22T23:06:42.188Z,13.20
2018-06-22T23:09:11.641Z,13.20
2018-06-22T23:11:43.754Z,13.10
2018-06-22T23:14:14.760Z,13.00
2018-06-22T23:16:45.296Z,13.00
2018-06-22T23:19:15.704Z,13.00
2018-06-22T23:21:48.067Z,13.00
2018-06-22T23:24:17.166Z,13.00
2018-06-22T23:26:50.293Z,12.90
2018-06-22T23:29:19.516Z,12.90
2018-06-22T23:31:52.239Z,12.90
2018-06-22T23:34:21.441Z,12.90
2018-06-22T23:36:53.745Z,12.90
2018-06-22T23:39:23.076Z,12.80
2018-06-22T23:41:55.649Z,12.80
2018-06-22T23:44:24.644Z,12.80
2018-06-22T23:47:01.158Z,12.80
2018-06-22T23:49:30.022Z,12.90
2018-06-22T23:51:59.712Z,12.80
2018-06-22T23:54:29.561Z,12.70
2018-06-22T23:57:01.894Z,12.70
2018-06-22T23:59:30.713Z,12.70
